Time;durP1;ratioP1;P1;durP2;ratioP2;P2;SDS_P1;SDS_P2;PMS_P1;PMS_P2;Temp;Humidity;BMP_temperature;BMP_pressure;BME280_temperature;BME280_humidity;BME280_pressure;Samples;Min_cycle;Max_cycle;Signal;HPM_P1;HPM_P2
2021/05/08 00:01:17;;;;;;;3.20;2.60;;;;;;;3.74;68.85;96639.59;1709981;82;21147;-80
2021/05/08 00:03:44;;;;;;;7.58;2.85;;;;;;;3.68;69.18;96637.91;1710052;82;21526;-80
2021/05/08 00:06:12;;;;;;;6.78;2.70;;;;;;;3.64;69.06;96645.42;1709991;82;21143;-80
2021/05/08 00:08:40;;;;;;;4.08;2.70;;;;;;;3.61;69.18;96644.59;1709971;82;21112;-80
2021/05/08 00:11:07;;;;;;;7.35;2.75;;;;;;;3.63;69.27;96648.28;1710000;82;21139;-80
2021/05/08 00:13:34;;;;;;;4.72;3.00;;;;;;;3.65;69.26;96648.33;1709955;82;21141;-80
2021/05/08 00:16:01;;;;;;;3.87;2.83;;;;;;;3.70;69.63;96651.06;1710041;82;21498;-80
2021/05/08 00:18:28;;;;;;;4.45;3.35;;;;;;;3.72;69.58;96645.59;1709935;82;21161;-80
2021/05/08 00:20:55;;;;;;;8.05;3.35;;;;;;;3.75;69.59;96650.36;1710111;82;21135;-80
2021/05/08 00:23:22;;;;;;;5.17;3.02;;;;;;;3.79;69.92;96650.16;1710011;82;21107;-80
2021/05/08 00:25:49;;;;;;;4.05;2.90;;;;;;;3.78;70.02;96655.92;1710058;82;21147;-80
2021/05/08 00:28:16;;;;;;;5.42;2.85;;;;;;;3.80;70.11;96657.82;1710015;82;21138;-80
2021/05/08 00:30:43;;;;;;;5.05;2.58;;;;;;;3.81;70.33;96658.10;1709829;82;21123;-80
2021/05/08 00:33:10;;;;;;;5.03;3.62;;;;;;;3.82;70.37;96665.45;1710098;83;21162;-80
2021/05/08 00:35:37;;;;;;;2.62;2.10;;;;;;;3.86;70.48;96663.43;1710014;82;21498;-80
2021/05/08 00:38:04;;;;;;;5.58;3.55;;;;;;;3.88;70.71;96664.50;1710040;82;21505;-80
2021/05/08 00:40:31;;;;;;;6.87;3.60;;;;;;;3.89;70.74;96672.65;1710219;82;21135;-80
2021/05/08 00:42:58;;;;;;;5.90;3.45;;;;;;;3.89;70.65;96672.65;1709890;82;21599;-80
2021/05/08 00:45:25;;;;;;;6.12;3.80;;;;;;;3.90;70.53;96666.38;1710089;82;21154;-80
2021/05/08 00:47:58;;;;;;;6.45;3.52;;;;;;;3.93;70.63;96672.45;1709897;82;21143;-80
2021/05/08 00:50:24;;;;;;;6.87;4.10;;;;;;;3.95;70.76;96665.69;1708972;82;21146;-80
2021/05/08 00:52:51;;;;;;;6.22;3.80;;;;;;;3.94;70.80;96668.83;1710011;82;21602;-80
2021/05/08 00:55:18;;;;;;;6.42;3.85;;;;;;;3.94;70.56;96675.88;1710061;82;21495;-80
2021/05/08 00:57:45;;;;;;;7.00;4.03;;;;;;;3.95;70.68;96673.56;1709982;82;21143;-80
2021/05/08 01:00:14;;;;;;;5.87;3.72;;;;;;;3.94;71.01;96671.45;1710098;82;21139;-80
2021/05/08 01:02:41;;;;;;;6.72;4.30;;;;;;;3.93;71.29;96681.63;1709996;82;21171;-80
2021/05/08 01:05:09;;;;;;;5.97;3.92;;;;;;;3.96;71.20;96689.06;1709963;82;21143;-80
2021/05/08 01:07:39;;;;;;;6.37;4.58;;;;;;;3.98;71.05;96685.69;1709966;82;21216;-80
2021/05/08 01:10:10;;;;;;;4.12;2.85;;;;;;;4.00;70.95;96687.55;1710061;82;21158;-80
2021/05/08 01:12:38;;;;;;;5.85;3.98;;;;;;;3.97;71.21;96676.22;1709934;82;21523;-80
2021/05/08 01:15:09;;;;;;;8.28;5.00;;;;;;;3.94;71.32;96688.50;1709924;82;21135;-80
2021/05/08 01:17:38;;;;;;;6.67;4.28;;;;;;;3.92;71.02;96686.60;1710000;82;21108;-80
2021/05/08 01:20:09;;;;;;;7.75;4.28;;;;;;;3.93;71.24;96695.27;1710014;82;21115;-80
2021/05/08 01:22:36;;;;;;;6.53;3.27;;;;;;;3.92;71.36;96694.98;1709983;82;21509;-80
2021/05/08 01:25:15;;;;;;;6.87;2.92;;;;;;;3.95;71.61;96706.34;1709954;82;21502;-80
2021/05/08 01:27:49;;;;;;;5.35;3.70;;;;;;;3.95;71.39;96699.27;1710067;82;21147;-80
2021/05/08 01:30:21;;;;;;;5.00;3.70;;;;;;;3.96;71.44;96701.37;1709996;82;21143;-80
2021/05/08 01:32:49;;;;;;;4.90;3.17;;;;;;;3.91;71.60;96712.55;1710014;82;21539;-80
2021/05/08 01:35:17;;;;;;;5.53;3.15;;;;;;;3.90;71.56;96704.40;1710016;82;21138;-80
2021/05/08 01:37:46;;;;;;;9.05;4.08;;;;;;;3.92;71.53;96709.41;1709931;82;21163;-80
2021/05/08 01:40:16;;;;;;;6.37;4.17;;;;;;;3.95;71.54;96718.15;1709990;82;21510;-80
2021/05/08 01:42:48;;;;;;;10.50;4.00;;;;;;;3.98;71.33;96725.55;1709999;82;21200;-80
2021/05/08 01:45:19;;;;;;;7.08;4.15;;;;;;;4.00;71.35;96719.03;1710025;82;21136;-80
2021/05/08 01:47:47;;;;;;;4.65;2.85;;;;;;;4.00;71.06;96722.17;1709924;82;21123;-80
2021/05/08 01:50:18;;;;;;;5.95;2.98;;;;;;;4.02;70.85;96730.08;1710012;82;21130;-80
2021/05/08 01:52:46;;;;;;;3.72;3.08;;;;;;;4.03;70.67;96718.55;1709942;82;21184;-80
2021/05/08 01:55:17;;;;;;;4.90;3.30;;;;;;;4.00;70.78;96722.97;1709984;82;21519;-80
2021/05/08 01:57:48;;;;;;;3.08;2.72;;;;;;;3.97;70.73;96731.30;1710066;82;21128;-80
2021/05/08 02:00:23;;;;;;;2.85;2.17;;;;;;;3.95;70.62;96738.61;1723069;82;21141;-80
2021/05/08 02:02:53;;;;;;;3.10;1.90;;;;;;;3.93;70.78;96722.29;1709682;82;21178;-80
2021/05/08 02:05:29;;;;;;;2.98;2.17;;;;;;;3.89;70.79;96730.34;1710187;82;21104;-80
2021/05/08 02:07:59;;;;;;;4.20;2.77;;;;;;;3.85;70.92;96732.64;1710029;82;21127;-80
2021/05/08 02:10:25;;;;;;;4.15;2.62;;;;;;;3.82;70.93;96725.25;1709872;82;21495;-80
2021/05/08 02:12:52;;;;;;;3.52;2.27;;;;;;;3.80;70.91;96739.59;1709949;82;21490;-80
2021/05/08 02:15:20;;;;;;;3.25;2.45;;;;;;;3.79;70.99;96745.35;1709872;82;21108;-79
2021/05/08 02:17:47;;;;;;;3.27;1.72;;;;;;;3.80;70.68;96753.53;1709957;82;21182;-80
2021/05/08 02:20:23;;;;;;;2.50;1.60;;;;;;;3.81;70.54;96739.39;1710050;82;21135;-80
2021/05/08 02:22:51;;;;;;;2.17;1.37;;;;;;;3.79;70.77;96736.17;1710287;82;21151;-80
2021/05/08 02:25:19;;;;;;;3.77;2.45;;;;;;;3.76;70.50;96740.58;1710102;82;21130;-80
2021/05/08 02:27:46;;;;;;;1.87;1.35;;;;;;;3.77;70.55;96759.73;1710041;82;21135;-80
2021/05/08 02:30:26;;;;;;;2.52;1.55;;;;;;;3.77;70.56;96760.52;1719049;82;21159;-80
2021/05/08 02:32:54;;;;;;;2.22;1.90;;;;;;;3.76;70.82;96758.93;1710080;82;21498;-80
2021/05/08 02:35:24;;;;;;;2.65;1.87;;;;;;;3.74;70.19;96768.86;1710197;82;21170;-80
2021/05/08 02:37:53;;;;;;;1.80;1.43;;;;;;;3.74;70.14;96773.30;1710296;82;21167;-80
2021/05/08 02:40:25;;;;;;;2.58;1.95;;;;;;;3.73;70.03;96767.27;1710070;82;21195;-80
2021/05/08 02:42:53;;;;;;;4.05;2.35;;;;;;;3.72;70.12;96768.81;1709867;82;21169;-80
2021/05/08 02:45:20;;;;;;;2.75;1.80;;;;;;;3.73;70.02;96783.52;1710139;82;21100;-80
2021/05/08 02:47:50;;;;;;;2.95;1.95;;;;;;;3.77;70.05;96778.08;1710021;82;21130;-80
2021/05/08 02:50:21;;;;;;;2.05;1.50;;;;;;;3.74;70.27;96778.55;1710372;82;21140;-80
2021/05/08 02:52:48;;;;;;;3.65;2.05;;;;;;;3.72;69.84;96775.36;1710336;82;21146;-80
2021/05/08 02:55:16;;;;;;;3.27;2.08;;;;;;;3.72;69.88;96775.36;1710033;82;21509;-80
2021/05/08 02:57:44;;;;;;;2.85;1.95;;;;;;;3.73;70.13;96787.45;1710092;82;21134;-80
2021/05/08 03:00:14;;;;;;;3.47;2.30;;;;;;;3.74;70.27;96783.80;1710069;82;21146;-80
2021/05/08 03:02:43;;;;;;;5.20;2.33;;;;;;;3.77;70.28;96785.95;1710134;82;21514;-80
2021/05/08 03:05:12;;;;;;;3.83;2.27;;;;;;;3.77;70.03;96786.75;1710320;82;21171;-80
2021/05/08 03:07:40;;;;;;;3.33;1.98;;;;;;;3.78;70.12;96792.27;1710047;82;21107;-80
2021/05/08 03:10:09;;;;;;;3.02;2.20;;;;;;;3.78;70.16;96794.89;1709942;82;21108;-80
2021/05/08 03:12:36;;;;;;;2.85;1.98;;;;;;;3.78;70.05;96797.52;1710040;82;21129;-80
2021/05/08 03:15:06;;;;;;;3.95;2.50;;;;;;;3.82;69.86;96795.25;1710003;82;21133;-80
2021/05/08 03:17:33;;;;;;;4.17;1.97;;;;;;;3.83;69.89;96801.58;1710219;82;21498;-80
2021/05/08 03:20:00;;;;;;;3.50;2.33;;;;;;;3.84;69.96;96797.92;1709953;82;21146;-80
2021/05/08 03:22:27;;;;;;;3.72;2.10;;;;;;;3.86;70.06;96799.00;1709945;82;21163;-80
2021/05/08 03:24:54;;;;;;;3.60;2.05;;;;;;;3.88;70.09;96814.78;1709860;82;21143;-80
2021/05/08 03:27:21;;;;;;;4.95;2.25;;;;;;;3.91;69.96;96803.55;1710171;82;21142;-80
2021/05/08 03:29:48;;;;;;;3.52;2.60;;;;;;;3.95;69.77;96811.26;1709954;82;21135;-80
2021/05/08 03:32:15;;;;;;;3.58;2.47;;;;;;;3.96;69.77;96808.91;1691948;82;21168;-80
2021/05/08 03:34:43;;;;;;;4.00;2.00;;;;;;;3.92;70.01;96816.42;1679304;84;21277;-80
2021/05/08 03:37:10;;;;;;;3.60;2.17;;;;;;;3.90;70.01;96820.31;1679554;84;21172;-80
2021/05/08 03:39:37;;;;;;;1.37;1.27;;;;;;;3.87;70.34;96828.13;1679333;84;21108;-80
2021/05/08 03:42:05;;;;;;;2.72;2.08;;;;;;;3.87;70.21;96825.51;1679274;84;21164;-80
2021/05/08 03:44:32;;;;;;;2.02;1.80;;;;;;;3.85;70.13;96833.61;1679402;84;21633;-80
2021/05/08 03:46:58;;;;;;;2.47;2.02;;;;;;;3.87;70.14;96826.81;1679355;84;21658;-80
2021/05/08 03:49:25;;;;;;;6.28;1.98;;;;;;;3.86;70.15;96831.78;1679294;83;21135;-80
2021/05/08 03:52:01;;;;;;;5.35;2.52;;;;;;;3.85;70.15;96840.67;1679370;84;21135;-80
2021/05/08 03:54:28;;;;;;;3.25;2.17;;;;;;;3.84;70.18;96833.84;1679349;84;21298;-80
2021/05/08 03:56:57;;;;;;;3.87;2.47;;;;;;;3.83;70.54;96847.98;1679314;84;21160;-80
2021/05/08 03:59:24;;;;;;;3.72;2.55;;;;;;;3.82;70.55;96848.50;1679235;84;21678;-80
2021/05/08 04:01:51;;;;;;;4.00;2.47;;;;;;;3.83;70.50;96846.67;1679361;84;21562;-80
2021/05/08 04:04:19;;;;;;;2.50;1.92;;;;;;;3.85;70.42;96853.79;1679296;84;21515;-80
2021/05/08 04:06:46;;;;;;;3.30;2.00;;;;;;;3.87;70.04;96847.80;1679572;84;21646;-80
2021/05/08 04:09:13;;;;;;;3.90;2.10;;;;;;;3.92;70.58;96857.59;1679194;84;21268;-80
2021/05/08 04:11:40;;;;;;;4.75;2.72;;;;;;;3.94;70.53;96851.59;1679366;84;21131;-80
2021/05/08 04:14:07;;;;;;;2.92;2.10;;;;;;;3.94;70.42;96856.36;1679269;84;21159;-80
2021/05/08 04:16:34;;;;;;;2.85;2.40;;;;;;;3.94;70.53;96856.84;1679304;84;21274;-80
2021/05/08 04:19:03;;;;;;;5.15;3.02;;;;;;;3.94;70.72;96860.30;1679322;84;21281;-80
2021/05/08 04:21:32;;;;;;;5.53;2.95;;;;;;;3.94;70.80;96862.92;1679243;84;21120;-80
2021/05/08 04:24:00;;;;;;;4.15;2.77;;;;;;;3.95;71.15;96871.06;1679261;84;21300;-80
2021/05/08 04:26:27;;;;;;;3.52;2.45;;;;;;;3.96;70.96;96866.11;1679313;84;21510;-80
2021/05/08 04:28:54;;;;;;;4.90;2.67;;;;;;;4.02;71.04;96876.98;1679269;84;21269;-80
2021/05/08 04:31:21;;;;;;;6.17;3.08;;;;;;;4.11;71.15;96877.44;1681710;82;21116;-80
2021/05/08 04:33:49;;;;;;;3.70;2.83;;;;;;;4.13;71.46;96886.67;1709882;82;21174;-80
2021/05/08 04:36:16;;;;;;;4.78;2.98;;;;;;;4.09;72.07;96867.17;1709935;82;21108;-80
2021/05/08 04:38:44;;;;;;;4.97;3.35;;;;;;;4.03;72.51;96886.44;1709826;82;21142;-80
2021/05/08 04:41:13;;;;;;;5.12;3.27;;;;;;;4.03;72.46;96893.52;1709927;82;21124;-80
2021/05/08 04:43:42;;;;;;;2.22;1.57;;;;;;;4.05;72.73;96890.94;1709785;82;21147;-80
2021/05/08 04:46:09;;;;;;;6.00;3.58;;;;;;;4.06;72.89;96871.55;1710020;82;21507;-80
2021/05/08 04:48:37;;;;;;;6.25;3.12;;;;;;;4.07;72.89;96886.26;1709823;82;21128;-80
2021/05/08 04:51:04;;;;;;;4.05;2.72;;;;;;;4.07;72.64;96900.69;1709800;82;21124;-80
2021/05/08 04:53:33;;;;;;;6.62;3.40;;;;;;;4.09;72.67;96896.55;1709890;82;21163;-80
2021/05/08 04:56:00;;;;;;;4.55;2.90;;;;;;;4.15;72.51;96895.10;1709848;82;21293;-80
2021/05/08 04:58:27;;;;;;;4.80;3.08;;;;;;;4.26;72.26;96891.39;1709905;82;21172;-80
2021/05/08 05:00:54;;;;;;;5.65;3.30;;;;;;;4.51;72.27;96907.67;1709840;82;21518;-81
2021/05/08 05:03:22;;;;;;;6.95;3.05;;;;;;;6.93;73.68;96901.70;1709947;82;21107;-80
2021/05/08 05:05:49;;;;;;;6.22;2.85;;;;;;;8.92;68.33;96900.73;1709826;82;21138;-80
2021/05/08 05:08:21;;;;;;;3.62;2.60;;;;;;;9.41;62.53;96902.14;1709849;83;21653;-80
2021/05/08 05:10:51;;;;;;;3.92;2.83;;;;;;;9.91;58.64;96905.87;1709909;82;21143;-80
2021/05/08 05:13:19;;;;;;;3.65;2.58;;;;;;;8.72;58.69;96906.45;1709994;82;21142;-80
2021/05/08 05:15:47;;;;;;;4.50;1.82;;;;;;;7.39;59.83;96898.99;1709861;82;21104;-80
2021/05/08 05:18:14;;;;;;;5.20;2.60;;;;;;;6.49;62.10;96918.05;1709935;82;21130;-80
2021/05/08 05:20:44;;;;;;;2.42;1.90;;;;;;;5.89;63.90;96919.54;1709807;82;21313;-80
2021/05/08 05:23:12;;;;;;;3.58;1.77;;;;;;;5.65;65.29;96932.59;1709993;82;21506;-80
2021/05/08 05:25:40;;;;;;;3.90;2.70;;;;;;;5.42;65.99;96919.58;1709846;82;21146;-80
2021/05/08 05:28:29;;;;;;;2.87;2.17;;;;;;;5.51;66.31;96940.52;1709809;82;21265;-80
2021/05/08 05:30:58;;;;;;;2.83;2.00;;;;;;;5.38;66.70;96946.07;1641139;87;21541;-80
2021/05/08 05:33:26;;;;;;;3.05;1.77;;;;;;;4.97;67.35;96951.89;1673927;85;21151;-80
2021/05/08 05:35:56;;;;;;;4.83;2.67;;;;;;;4.76;68.46;96938.34;1684598;85;21106;-81
2021/05/08 05:38:25;;;;;;;2.00;1.20;;;;;;;4.66;68.61;96953.13;1684937;84;21134;-80
2021/05/08 05:40:54;;;;;;;2.85;1.72;;;;;;;4.68;68.84;96954.48;1684656;84;21494;-81
2021/05/08 05:43:22;;;;;;;6.80;1.82;;;;;;;5.02;69.01;96955.92;1684959;84;21208;-80
2021/05/08 05:45:50;;;;;;;2.72;1.87;;;;;;;4.96;68.25;96957.66;1678878;84;21138;-80
2021/05/08 05:48:17;;;;;;;5.42;2.17;;;;;;;5.40;67.92;96957.94;1671890;85;21141;-80
2021/05/08 05:50:45;;;;;;;3.12;2.02;;;;;;;5.27;67.69;96961.66;1684602;84;21102;-80
2021/05/08 05:53:12;;;;;;;6.20;2.58;;;;;;;5.07;67.97;96957.34;1684719;84;21145;-80
2021/05/08 05:55:40;;;;;;;3.42;1.75;;;;;;;4.94;68.70;96970.75;1684845;84;21315;-80
2021/05/08 05:58:07;;;;;;;2.67;1.60;;;;;;;5.05;68.49;96969.89;1684823;85;21135;-80
2021/05/08 06:00:35;;;;;;;3.17;2.35;;;;;;;5.39;68.12;96965.55;1684867;84;21505;-80
2021/05/08 06:03:02;;;;;;;2.15;1.77;;;;;;;5.30;67.68;96971.69;1684687;85;21102;-80
2021/05/08 06:05:29;;;;;;;3.70;2.40;;;;;;;5.57;67.49;96969.28;1684818;84;21123;-80
2021/05/08 06:07:56;;;;;;;4.58;1.92;;;;;;;5.95;67.49;96963.36;1665503;84;21129;-81
2021/05/08 06:10:23;;;;;;;7.03;4.62;;;;;;;7.15;65.34;96967.05;1684981;85;21127;-81
2021/05/08 06:12:51;;;;;;;10.08;4.97;;;;;;;9.14;64.51;96962.66;1684779;84;21170;-81
2021/05/08 06:15:18;;;;;;;2.02;1.30;;;;;;;9.14;59.89;96968.48;1684792;85;21150;-80
2021/05/08 06:17:45;;;;;;;3.02;1.87;;;;;;;7.97;58.71;96967.81;1684735;84;21534;-81
2021/05/08 06:20:14;;;;;;;1.98;1.50;;;;;;;6.95;60.85;96968.14;1684852;84;21166;-81
2021/05/08 06:22:41;;;;;;;4.42;1.95;;;;;;;6.47;62.21;96960.41;1684808;84;21186;-81
2021/05/08 06:25:09;;;;;;;3.45;2.02;;;;;;;6.68;62.94;96969.39;1684803;85;21123;-81
2021/05/08 06:27:37;;;;;;;3.52;2.00;;;;;;;9.40;59.04;96965.38;1684834;85;21138;-81
2021/05/08 06:30:06;;;;;;;3.27;1.70;;;;;;;11.74;53.76;96952.39;1684753;85;21193;-81
2021/05/08 06:32:33;;;;;;;3.83;2.33;;;;;;;10.70;51.43;96956.38;1692652;83;21180;-81
2021/05/08 06:35:00;;;;;;;6.00;3.75;;;;;;;9.39;52.98;96967.23;1683346;84;21649;-81
2021/05/08 06:37:30;;;;;;;2.98;2.00;;;;;;;8.76;54.85;96973.11;1679388;84;21189;-81
2021/05/08 06:39:57;;;;;;;3.95;2.22;;;;;;;8.12;56.31;96957.36;1679498;84;21156;-81
2021/05/08 06:42:24;;;;;;;3.92;1.60;;;;;;;8.39;56.63;96969.20;1679273;84;21342;-81
2021/05/08 06:44:51;;;;;;;2.67;1.87;;;;;;;8.03;57.54;96972.89;1679418;84;21171;-81
2021/05/08 06:47:19;;;;;;;2.45;1.57;;;;;;;7.67;57.64;96968.36;1679372;84;21512;-81
2021/05/08 06:49:46;;;;;;;11.60;6.58;;;;;;;7.52;57.70;96978.25;1679472;84;21290;-81
2021/05/08 06:52:13;;;;;;;2.47;1.42;;;;;;;7.86;59.49;96981.45;1679314;84;21160;-81
2021/05/08 06:54:40;;;;;;;3.35;2.08;;;;;;;10.59;54.31;96970.72;1679488;84;21286;-81
2021/05/08 06:57:07;;;;;;;2.60;1.75;;;;;;;10.76;51.50;96980.22;1679444;84;21306;-81
2021/05/08 06:59:34;;;;;;;5.12;2.70;;;;;;;10.21;50.93;96977.89;1679474;84;21514;-81
2021/05/08 07:02:04;;;;;;;5.28;3.40;;;;;;;9.00;53.40;96980.06;1679227;84;21309;-81
2021/05/08 07:04:33;;;;;;;4.42;2.47;;;;;;;9.10;53.95;96979.32;1679376;84;21274;-81
2021/05/08 07:07:00;;;;;;;2.50;1.72;;;;;;;11.46;52.84;96987.62;1679395;84;21140;-82
2021/05/08 07:09:28;;;;;;;3.50;2.10;;;;;;;13.16;48.71;96975.48;1679306;84;21182;-82
2021/05/08 07:11:55;;;;;;;2.95;1.45;;;;;;;15.12;47.30;96964.35;1679684;84;21140;-81
2021/05/08 07:14:24;;;;;;;2.02;1.47;;;;;;;16.82;43.88;96953.67;1679387;84;21520;-82
2021/05/08 07:16:51;;;;;;;3.00;1.77;;;;;;;18.08;39.08;96958.28;1679347;84;21176;-80
2021/05/08 07:19:18;;;;;;;3.20;1.30;;;;;;;18.27;38.11;96940.47;1679417;84;21548;-79
2021/05/08 07:21:45;;;;;;;6.83;4.00;;;;;;;15.95;36.66;96960.95;1679306;84;21147;-79
2021/05/08 07:24:12;;;;;;;2.27;1.45;;;;;;;13.07;40.35;96975.32;1679353;84;21151;-79
2021/05/08 07:26:40;;;;;;;3.42;1.62;;;;;;;11.07;43.92;96984.34;1679387;84;21289;-79
2021/05/08 07:29:07;;;;;;;3.65;1.57;;;;;;;9.74;46.71;96998.81;1679432;84;21147;-79
2021/05/08 07:31:34;;;;;;;3.27;1.32;;;;;;;8.90;49.03;96980.05;1679256;84;21324;-79
2021/05/08 07:34:01;;;;;;;1.27;0.90;;;;;;;8.02;50.28;96994.24;1679352;84;21331;-79
2021/05/08 07:36:28;;;;;;;1.57;1.00;;;;;;;8.00;50.37;96993.18;1679326;84;21132;-78
2021/05/08 07:38:56;;;;;;;1.75;1.30;;;;;;;7.92;50.25;96988.38;1679290;84;21266;-78
2021/05/08 07:41:24;;;;;;;2.15;1.27;;;;;;;7.59;51.73;96997.30;1679412;84;21139;-79
2021/05/08 07:43:52;;;;;;;2.35;1.70;;;;;;;7.39;51.99;96993.94;1679352;84;21156;-79
2021/05/08 07:46:19;;;;;;;2.77;1.42;;;;;;;7.44;52.44;97005.86;1679254;84;21143;-78
2021/05/08 07:48:46;;;;;;;3.27;1.70;;;;;;;7.32;52.62;96997.80;1679277;84;21273;-78
2021/05/08 07:51:13;;;;;;;2.50;1.52;;;;;;;7.28;53.58;97001.98;1679326;84;21136;-78
2021/05/08 07:53:41;;;;;;;3.33;1.80;;;;;;;7.43;53.43;97002.15;1679369;84;21321;-78
2021/05/08 07:56:08;;;;;;;4.75;1.32;;;;;;;7.27;53.96;97001.72;1679411;84;21285;-78
2021/05/08 07:58:35;;;;;;;4.12;2.12;;;;;;;7.14;54.75;96997.61;1679249;84;21178;-78
2021/05/08 08:01:03;;;;;;;3.37;1.75;;;;;;;7.15;55.25;97002.64;1679302;84;21129;-79
2021/05/08 08:03:30;;;;;;;3.10;1.72;;;;;;;10.14;55.03;97002.55;1679296;84;21282;-79
2021/05/08 08:05:59;;;;;;;3.60;1.80;;;;;;;11.60;49.38;96992.05;1679391;84;21286;-79
2021/05/08 08:08:28;;;;;;;1.67;1.20;;;;;;;13.33;44.06;96993.67;1679337;84;21274;-79
2021/05/08 08:10:57;;;;;;;2.80;1.60;;;;;;;13.72;41.51;96997.41;1679315;84;21274;-80
2021/05/08 08:13:25;;;;;;;3.05;1.50;;;;;;;15.16;41.61;96996.05;1679284;84;21675;-80
2021/05/08 08:15:52;;;;;;;1.92;1.25;;;;;;;15.93;37.17;96990.68;1679516;84;21147;-79
2021/05/08 08:18:19;;;;;;;2.17;1.45;;;;;;;16.19;37.21;96995.44;1679265;84;21139;-79
2021/05/08 08:20:46;;;;;;;2.02;1.30;;;;;;;16.38;36.85;96991.22;1679609;84;21131;-79
2021/05/08 08:23:15;;;;;;;2.50;1.60;;;;;;;16.04;35.48;96986.66;1679263;84;21143;-79
2021/05/08 08:25:42;;;;;;;3.08;1.50;;;;;;;14.43;36.76;96997.63;1679355;84;21139;-79
2021/05/08 08:28:09;;;;;;;2.50;1.70;;;;;;;15.88;37.81;96994.79;1679317;84;21702;-79
2021/05/08 08:30:36;;;;;;;2.17;1.20;;;;;;;13.81;36.74;96997.02;1679383;84;21543;-79
2021/05/08 08:33:04;;;;;;;2.60;1.80;;;;;;;11.83;39.28;96993.27;1689347;82;21228;-79
2021/05/08 08:35:32;;;;;;;1.12;1.00;;;;;;;11.12;41.02;97004.24;1709960;82;21265;-79
2021/05/08 08:37:59;;;;;;;1.12;1.00;;;;;;;10.39;42.80;97007.84;1709803;82;21146;-79
2021/05/08 08:40:28;;;;;;;1.70;0.90;;;;;;;11.62;41.51;96996.28;1709950;82;21154;-79
2021/05/08 08:42:56;;;;;;;2.98;1.10;;;;;;;14.34;38.52;96993.25;1709772;82;21180;-79
2021/05/08 08:45:24;;;;;;;1.90;0.80;;;;;;;15.86;37.21;96983.61;1709906;82;21510;-80
2021/05/08 08:47:54;;;;;;;3.70;0.93;;;;;;;14.42;33.90;96992.59;1709845;82;21123;-79
2021/05/08 08:50:21;;;;;;;;;;;;;;;12.40;37.80;96992.28;1712489;82;21171;-79
2021/05/08 08:52:49;;;;;;;1.50;1.00;;;;;;;10.94;37.92;96992.88;1709864;82;20143;-79
2021/05/08 08:55:16;;;;;;;1.85;0.90;;;;;;;10.28;40.07;96998.34;1709921;82;21167;-79
2021/05/08 08:57:45;;;;;;;2.40;1.05;;;;;;;9.62;41.05;97010.17;1710044;82;21134;-79
2021/05/08 09:00:16;;;;;;;1.45;1.10;;;;;;;9.25;42.74;97007.15;1709916;82;21510;-79
2021/05/08 09:02:47;;;;;;;1.42;0.98;;;;;;;8.90;42.54;97003.84;1709246;82;21127;-79
2021/05/08 09:05:23;;;;;;;3.45;1.00;;;;;;;8.61;43.69;97008.19;1709762;82;21515;-80
2021/05/08 09:07:52;;;;;;;1.87;1.32;;;;;;;8.54;44.73;97006.80;1709843;82;21518;-80
2021/05/08 09:10:28;;;;;;;1.67;1.17;;;;;;;8.35;45.02;97014.88;1709912;83;21139;-80
2021/05/08 09:12:59;;;;;;;1.67;1.52;;;;;;;8.35;46.12;97017.52;1709801;82;21177;-80
2021/05/08 09:15:40;;;;;;;2.95;1.00;;;;;;;8.32;46.53;97020.91;1709941;82;21123;-80
2021/05/08 09:18:10;;;;;;;3.87;1.52;;;;;;;8.58;45.85;97025.05;1709668;82;21135;-81
2021/05/08 09:20:48;;;;;;;2.67;1.47;;;;;;;9.30;45.10;97019.62;1737930;81;21157;-81
2021/05/08 09:23:27;;;;;;;2.62;1.25;;;;;;;9.55;44.58;97022.84;1737569;81;21129;-80
2021/05/08 09:26:01;;;;;;;2.08;1.27;;;;;;;9.66;43.98;97013.87;1737325;81;21083;-80
2021/05/08 09:28:30;;;;;;;2.62;1.40;;;;;;;9.42;43.74;97023.60;1737656;81;21121;-81
2021/05/08 09:30:59;;;;;;;2.67;1.10;;;;;;;9.19;45.01;97020.10;1737428;81;21110;-81
2021/05/08 09:33:28;;;;;;;2.42;1.40;;;;;;;9.11;45.14;97021.91;1737160;81;21118;-81
2021/05/08 09:36:11;;;;;;;3.20;1.82;;;;;;;8.86;44.97;97024.69;1736945;81;21136;-80
2021/05/08 09:38:42;;;;;;;2.72;1.10;;;;;;;8.76;45.77;97017.25;1738668;81;21261;-80
2021/05/08 09:41:12;;;;;;;3.12;1.65;;;;;;;8.75;44.32;97022.27;1754473;81;21265;-80
2021/05/08 09:43:41;;;;;;;3.45;1.52;;;;;;;8.84;45.89;97028.13;1736976;81;21474;-81
2021/05/08 09:46:12;;;;;;;3.37;1.50;;;;;;;9.08;45.48;97024.55;1736941;81;21122;-81
2021/05/08 09:48:40;;;;;;;3.10;1.65;;;;;;;9.41;44.44;97025.98;1733498;81;21119;-81
2021/05/08 09:51:24;;;;;;;1.72;1.05;;;;;;;9.34;44.51;97019.36;1736992;81;21118;-81
2021/05/08 09:54:04;;;;;;;2.27;1.42;;;;;;;9.22;44.00;97001.06;1736872;81;21152;-81
2021/05/08 09:56:42;;;;;;;2.10;1.20;;;;;;;9.46;46.00;97014.64;1737188;81;21109;-81
2021/05/08 09:59:36;;;;;;;1.82;1.22;;;;;;;10.02;46.02;97000.95;1739775;81;21134;-81
2021/05/08 10:02:10;;;;;;;2.67;1.65;;;;;;;10.49;46.06;96997.77;1701160;84;21163;-81
2021/05/08 10:04:45;;;;;;;3.80;1.42;;;;;;;10.20;43.16;96996.18;1686387;84;21267;-81
2021/05/08 10:07:23;;;;;;;2.77;1.60;;;;;;;9.95;43.08;97008.88;1701856;83;21132;-81
2021/05/08 10:09:53;;;;;;;1.57;1.10;;;;;;;9.58;43.59;97011.23;1701706;83;21140;-80
2021/05/08 10:12:23;;;;;;;;;;;;;;;9.33;43.36;97013.27;1704151;83;21189;-80
2021/05/08 10:14:56;;;;;;;2.60;1.37;;;;;;;9.36;44.27;97014.07;1701628;83;20134;-81
2021/05/08 10:17:26;;;;;;;2.35;1.00;;;;;;;9.49;42.77;97002.20;1701459;83;21487;-81
2021/05/08 10:20:06;;;;;;;1.07;1.00;;;;;;;9.47;43.67;97015.70;1701988;83;21131;-81
2021/05/08 10:22:35;;;;;;;;;;;;;;;9.30;42.20;97011.68;1704272;83;21246;-80
2021/05/08 10:25:05;;;;;;;3.47;1.12;;;;;;;9.25;44.58;97008.47;1701710;83;20158;-81
2021/05/08 10:27:33;;;;;;;2.70;1.25;;;;;;;9.45;43.67;97004.58;1718934;83;21507;-80
2021/05/08 10:30:01;;;;;;;1.57;1.10;;;;;;;9.70;43.99;97008.31;1704676;83;21150;-81
2021/05/08 10:32:30;;;;;;;3.15;1.15;;;;;;;9.74;43.18;97015.49;1701806;83;21159;-81
2021/05/08 10:35:02;;;;;;;1.30;1.07;;;;;;;9.79;43.51;97005.43;1681953;84;21182;-80
2021/05/08 10:37:31;;;;;;;4.58;1.32;;;;;;;9.92;41.85;97003.59;1679272;84;21270;-80
2021/05/08 10:40:10;;;;;;;2.85;1.35;;;;;;;9.93;41.74;97007.03;1679213;84;21139;-81
2021/05/08 10:42:49;;;;;;;2.27;1.30;;;;;;;10.35;41.79;97000.17;1679764;84;21128;-81
2021/05/08 10:45:24;;;;;;;3.25;1.95;;;;;;;10.98;42.78;96995.27;1679420;84;21266;-81
2021/05/08 10:48:00;;;;;;;3.42;1.65;;;;;;;10.94;38.88;97004.81;1679409;84;21528;-81
2021/05/08 10:50:47;;;;;;;2.27;2.08;;;;;;;10.55;40.47;96998.02;1679365;84;21270;-81
2021/05/08 10:53:17;;;;;;;3.00;1.45;;;;;;;10.43;40.51;97010.78;1679291;84;21169;-81
2021/05/08 10:55:52;;;;;;;4.45;1.10;;;;;;;10.15;40.48;97008.91;1679370;84;21140;-81
2021/05/08 10:58:24;;;;;;;1.17;1.00;;;;;;;10.01;42.03;97004.66;1679430;84;21626;-81
2021/05/08 11:01:05;;;;;;;2.33;1.20;;;;;;;9.88;41.03;97013.13;1679416;84;21151;-80
2021/05/08 11:03:52;;;;;;;2.83;1.57;;;;;;;9.77;42.33;97006.23;1679498;84;21155;-81
2021/05/08 11:06:20;;;;;;;2.85;1.22;;;;;;;9.88;42.38;97002.53;1679373;84;21293;-81
2021/05/08 11:08:50;;;;;;;2.22;1.40;;;;;;;10.33;43.52;97004.95;1679313;84;21321;-81
2021/05/08 11:11:22;;;;;;;2.60;1.30;;;;;;;10.84;42.04;96991.58;1679807;84;21179;-81
2021/05/08 11:13:54;;;;;;;2.33;1.52;;;;;;;11.36;42.77;96987.12;1679459;84;21139;-81
2021/05/08 11:16:31;;;;;;;2.02;1.65;;;;;;;11.58;41.66;96976.13;1679429;84;21622;-81
2021/05/08 11:19:00;;;;;;;2.60;1.22;;;;;;;11.71;40.94;97000.75;1679307;84;21262;-81
2021/05/08 11:21:37;;;;;;;2.10;1.27;;;;;;;11.87;39.03;96986.33;1679502;84;21289;-81
2021/05/08 11:24:09;;;;;;;2.00;1.50;;;;;;;11.91;39.00;96989.75;1679278;84;21668;-80
2021/05/08 11:26:45;;;;;;;1.57;1.27;;;;;;;11.78;40.10;96984.49;1679439;84;21625;-80
2021/05/08 11:29:20;;;;;;;3.47;1.47;;;;;;;12.07;40.80;96983.25;1679400;84;21128;-80
2021/05/08 11:31:57;;;;;;;3.17;1.80;;;;;;;12.06;40.17;96981.66;1678977;84;21139;-80
2021/05/08 11:34:28;;;;;;;2.85;1.72;;;;;;;12.37;41.54;96988.30;1695039;82;21604;-79
2021/05/08 11:37:03;;;;;;;3.22;1.77;;;;;;;12.35;37.49;96971.84;1709932;82;21518;-80
2021/05/08 11:39:36;;;;;;;2.20;1.77;;;;;;;11.54;38.21;96989.68;1709934;82;21147;-80
2021/05/08 11:42:14;;;;;;;1.95;1.35;;;;;;;11.23;40.14;96993.03;1709888;82;21494;-80
2021/05/08 11:44:57;;;;;;;4.78;1.77;;;;;;;11.14;40.04;96970.27;1713747;82;21150;-80
2021/05/08 11:47:30;;;;;;;2.20;1.17;;;;;;;11.07;41.60;97000.27;1719811;82;21143;-80
2021/05/08 11:50:15;;;;;;;2.62;1.65;;;;;;;11.24;37.95;96992.75;1716972;82;21162;-79
2021/05/08 11:52:49;;;;;;;4.47;1.67;;;;;;;11.49;39.83;96996.36;1726106;82;21151;-80